Time;durP1;ratioP1;P1;durP2;ratioP2;P2;SDS_P1;SDS_P2;PMS_P1;PMS_P2;Temp;Humidity;BMP_temperature;BMP_pressure;BME280_temperature;BME280_humidity;BME280_pressure;Samples;Min_cycle;Max_cycle;Signal;HPM_P1;HPM_P2
2021/08/13 00:00:01;;;;;;;27.13;16.57;;;;;;;;;;5028681;28;20495;-60
2021/08/13 00:02:28;;;;;;;31.43;22.10;;;;;;;;;;5030976;28;20495;-55
2021/08/13 00:04:56;;;;;;;24.67;19.50;;;;;;;;;;5030735;28;20485;-59
2021/08/13 00:07:23;;;;;;;26.07;19.30;;;;;;;;;;5030405;28;20463;-58
2021/08/13 00:09:50;;;;;;;23.63;15.33;;;;;;;;;;5030076;28;20466;-58
2021/08/13 00:12:18;;;;;;;31.47;22.80;;;;;;;;;;5031361;28;20479;-57
2021/08/13 00:14:59;;;;;;;22.80;17.10;;;;;;;;;;5032986;28;20484;-59
2021/08/13 00:17:26;;;;;;;28.87;19.73;;;;;;;;;;5032395;28;20463;-55
2021/08/13 00:19:54;;;;;;;18.40;13.50;;;;;;;;;;5032174;28;20465;-54
2021/08/13 00:22:33;;;;;;;26.30;17.57;;;;;;;;;;5031843;28;20495;-56
2021/08/13 00:25:00;;;;;;;19.70;13.87;;;;;;;;;;5031723;28;20488;-55
2021/08/13 00:27:28;;;;;;;18.10;11.07;;;;;;;;;;5030765;28;20466;-53
2021/08/13 00:29:55;;;;;;;12.63;9.13;;;;;;;;;;5031542;28;20459;-54
2021/08/13 00:32:24;;;;;;;13.80;9.97;;;;;;;;;;5031420;28;20450;-55
2021/08/13 00:35:01;;;;;;;13.13;9.17;;;;;;;;;;5031275;28;20466;-57
2021/08/13 00:37:29;;;;;;;12.33;11.03;;;;;;;;;;5031755;28;20450;-57
2021/08/13 00:39:56;;;;;;;21.33;18.50;;;;;;;;;;5031536;28;20462;-55
2021/08/13 00:42:37;;;;;;;23.27;17.10;;;;;;;;;;5032126;28;20504;-56
2021/08/13 00:45:06;;;;;;;13.70;10.50;;;;;;;;;;5032560;28;20467;-56
2021/08/13 00:47:34;;;;;;;11.07;8.90;;;;;;;;;;5032828;28;20469;-55
2021/08/13 00:50:06;;;;;;;14.63;9.60;;;;;;;;;;5032835;28;20475;-56
2021/08/13 00:52:33;;;;;;;10.60;8.70;;;;;;;;;;5032965;28;20431;-54
2021/08/13 00:55:01;;;;;;;10.60;8.40;;;;;;;;;;5031285;28;20458;-58
2021/08/13 00:57:29;;;;;;;11.23;9.40;;;;;;;;;;5031333;28;20455;-55
2021/08/13 01:00:00;;;;;;;13.77;8.50;;;;;;;;;;5031042;28;20497;-57
2021/08/13 01:02:27;;;;;;;14.50;9.93;;;;;;;;;;5031591;28;20483;-55
2021/08/13 01:05:00;;;;;;;12.13;8.50;;;;;;;;;;5032344;28;20439;-54
2021/08/13 01:07:27;;;;;;;11.37;8.97;;;;;;;;;;5030921;28;20477;-59
2021/08/13 01:09:55;;;;;;;12.10;9.53;;;;;;;;;;5031072;28;20431;-56
2021/08/13 01:12:26;;;;;;;11.17;8.97;;;;;;;;;;5031314;28;20458;-56
2021/08/13 01:14:58;;;;;;;11.23;8.80;;;;;;;;;;5032862;28;20443;-54
2021/08/13 01:17:25;;;;;;;13.50;8.93;;;;;;;;;;5033076;28;20450;-58
2021/08/13 01:20:09;;;;;;;13.33;8.80;;;;;;;;;;5032349;28;20506;-56
2021/08/13 01:22:38;;;;;;;13.23;9.30;;;;;;;;;;5036183;28;20482;-57
2021/08/13 01:25:08;;;;;;;14.07;8.57;;;;;;;;;;5035276;28;20447;-56
2021/08/13 01:27:37;;;;;;;10.77;8.43;;;;;;;;;;5035530;28;20451;-56
2021/08/13 01:30:06;;;;;;;11.30;8.33;;;;;;;;;;5035934;28;20455;-60
2021/08/13 01:32:40;;;;;;;9.53;8.10;;;;;;;;;;5036120;28;20458;-58
2021/08/13 01:35:35;;;;;;;10.43;8.00;;;;;;;;;;5035820;28;20428;-54
2021/08/13 01:38:04;;;;;;;11.10;8.50;;;;;;;;;;5035123;28;20463;-60
2021/08/13 01:40:32;;;;;;;9.80;8.13;;;;;;;;;;5035645;28;20492;-53
2021/08/13 01:43:00;;;;;;;9.00;8.07;;;;;;;;;;5034989;28;20520;-55
2021/08/13 01:45:29;;;;;;;11.10;8.23;;;;;;;;;;5034793;28;20488;-52
2021/08/13 01:47:58;;;;;;;16.80;7.33;;;;;;;;;;5034721;28;20463;-56
2021/08/13 01:50:26;;;;;;;9.93;7.80;;;;;;;;;;5035522;28;20463;-57
2021/08/13 01:52:55;;;;;;;11.70;8.20;;;;;;;;;;5035549;28;20469;-55
2021/08/13 01:55:23;;;;;;;10.73;8.60;;;;;;;;;;5051951;28;20604;-54
2021/08/13 01:57:56;;;;;;;11.90;8.47;;;;;;;;;;5054524;28;20442;-55
2021/08/13 02:00:25;;;;;;;9.77;8.27;;;;;;;;;;5054340;28;20477;-56
2021/08/13 02:02:53;;;;;;;11.27;8.80;;;;;;;;;;5054613;28;20505;-57
2021/08/13 02:05:32;;;;;;;16.40;7.93;;;;;;;;;;5054689;28;20633;-52
2021/08/13 02:08:01;;;;;;;12.57;7.93;;;;;;;;;;5053910;28;20515;-53
2021/08/13 02:10:28;;;;;;;10.90;8.37;;;;;;;;;;5054548;28;20456;-51
2021/08/13 02:12:56;;;;;;;9.00;7.90;;;;;;;;;;5054697;28;20454;-56
2021/08/13 02:15:24;;;;;;;10.97;8.43;;;;;;;;;;5054564;28;20461;-58
2021/08/13 02:17:55;;;;;;;9.80;8.00;;;;;;;;;;5054155;28;20494;-55
2021/08/13 02:20:26;;;;;;;9.40;7.60;;;;;;;;;;5054466;28;20452;-54
2021/08/13 02:22:55;;;;;;;9.00;7.20;;;;;;;;;;5055020;28;20493;-55
2021/08/13 02:25:22;;;;;;;11.70;8.10;;;;;;;;;;5055023;28;20487;-56
2021/08/13 02:27:55;;;;;;;11.47;7.60;;;;;;;;;;5053851;28;20458;-58
2021/08/13 02:30:22;;;;;;;10.73;9.50;;;;;;;;;;5054177;28;20450;-54
2021/08/13 02:32:49;;;;;;;11.07;8.23;;;;;;;;;;5053393;28;20450;-54
2021/08/13 02:35:21;;;;;;;10.50;8.10;;;;;;;;;;5053796;28;20479;-55
2021/08/13 02:37:50;;;;;;;10.90;9.17;;;;;;;;;;5053534;28;20446;-53
2021/08/13 02:40:21;;;;;;;12.20;8.37;;;;;;;;;;5054263;28;20458;-55
2021/08/13 02:42:52;;;;;;;12.93;8.80;;;;;;;;;;5054271;28;20494;-53
2021/08/13 02:45:22;;;;;;;13.63;9.10;;;;;;;;;;5054910;28;20481;-58
2021/08/13 02:47:54;;;;;;;12.80;8.70;;;;;;;;;;5036446;28;20463;-59
2021/08/13 02:50:22;;;;;;;9.60;8.13;;;;;;;;;;5034661;28;20466;-57
2021/08/13 02:52:52;;;;;;;15.90;10.67;;;;;;;;;;5037891;28;20523;-58
2021/08/13 02:55:55;;;;;;;11.07;8.63;;;;;;;;;;5125393;28;20506;-58
2021/08/13 02:58:25;;;;;;;17.43;9.00;;;;;;;;;;5137233;28;20480;-54
2021/08/13 03:00:54;;;;;;;13.70;9.17;;;;;;;;;;5137304;28;20477;-56
2021/08/13 03:03:43;;;;;;;16.40;8.50;;;;;;;;;;5137415;28;20501;-56
2021/08/13 03:06:15;;;;;;;12.23;9.97;;;;;;;;;;5137816;28;20483;-53
2021/08/13 03:08:43;;;;;;;10.93;8.67;;;;;;;;;;5137886;28;20442;-55
2021/08/13 03:11:18;;;;;;;10.57;8.20;;;;;;;;;;5138523;28;20514;-55
2021/08/13 03:13:48;;;;;;;11.30;9.20;;;;;;;;;;5138394;28;20475;-60
2021/08/13 03:16:15;;;;;;;11.00;8.80;;;;;;;;;;5047909;28;20493;-55
2021/08/13 03:18:57;;;;;;;11.40;8.70;;;;;;;;;;5015018;28;20474;-58
2021/08/13 03:21:24;;;;;;;10.37;8.47;;;;;;;;;;5014083;28;20444;-52
2021/08/13 03:23:52;;;;;;;22.93;8.70;;;;;;;;;;5014261;28;20475;-59
2021/08/13 03:26:35;;;;;;;13.40;8.07;;;;;;;;;;5014373;28;20436;-51
2021/08/13 03:29:04;;;;;;;9.17;8.17;;;;;;;;;;5014052;28;20459;-55
2021/08/13 03:31:35;;;;;;;12.50;7.70;;;;;;;;;;5014282;28;20436;-55
2021/08/13 03:34:35;;;;;;;12.70;9.20;;;;;;;;;;5014525;28;20456;-56
2021/08/13 03:37:03;;;;;;;11.23;8.10;;;;;;;;;;5014001;28;20515;-55
2021/08/13 03:39:30;;;;;;;10.90;8.40;;;;;;;;;;5014368;28;20468;-55
2021/08/13 03:42:08;;;;;;;13.20;8.37;;;;;;;;;;5013776;28;20491;-54
2021/08/13 03:44:37;;;;;;;14.00;8.90;;;;;;;;;;5036356;28;20527;-56
2021/08/13 03:47:05;;;;;;;11.67;8.20;;;;;;;;;;5053671;28;20457;-55
2021/08/13 03:49:33;;;;;;;9.70;7.57;;;;;;;;;;5053610;28;20467;-54
2021/08/13 03:52:01;;;;;;;15.67;8.43;;;;;;;;;;5037789;28;20467;-56
2021/08/13 03:54:28;;;;;;;9.37;7.40;;;;;;;;;;5034692;28;20455;-57
2021/08/13 03:56:57;;;;;;;10.50;8.30;;;;;;;;;;5040509;28;20462;-56
2021/08/13 03:59:25;;;;;;;13.20;8.03;;;;;;;;;;5125127;27;20484;-56
2021/08/13 04:01:53;;;;;;;11.87;8.53;;;;;;;;;;5053616;28;20482;-55
2021/08/13 04:07:24;;;;;;;10.10;8.23;;;;;;;;;;5089014;27;20503;-60
2021/08/13 04:09:53;;;;;;;14.17;9.60;;;;;;;;;;5034154;28;20455;-56
2021/08/13 04:12:23;;;;;;;11.53;8.93;;;;;;;;;;5034468;28;20447;-59
2021/08/13 04:14:51;;;;;;;11.63;9.03;;;;;;;;;;5034273;28;20475;-54
2021/08/13 04:17:21;;;;;;;12.47;8.00;;;;;;;;;;5033933;28;20466;-56
2021/08/13 04:20:08;;;;;;;9.07;7.60;;;;;;;;;;5034026;28;20454;-58
2021/08/13 04:22:46;;;;;;;13.10;9.10;;;;;;;;;;5033999;28;20482;-54
2021/08/13 04:25:14;;;;;;;12.33;8.53;;;;;;;;;;5049325;28;20912;-54
2021/08/13 04:27:42;;;;;;;10.87;8.07;;;;;;;;;;5053721;28;20438;-55
2021/08/13 04:30:09;;;;;;;12.67;8.40;;;;;;;;;;5053528;28;20446;-58
2021/08/13 04:32:41;;;;;;;13.53;9.63;;;;;;;;;;5052554;28;20687;-55
2021/08/13 04:35:09;;;;;;;11.90;8.13;;;;;;;;;;5052316;28;20454;-56
2021/08/13 04:37:37;;;;;;;10.90;9.40;;;;;;;;;;5053308;28;20465;-50
2021/08/13 04:40:05;;;;;;;11.80;8.57;;;;;;;;;;5052662;28;20458;-56
2021/08/13 04:42:32;;;;;;;13.77;8.00;;;;;;;;;;5052305;28;20481;-55
2021/08/13 04:44:59;;;;;;;12.10;8.63;;;;;;;;;;5053090;28;20454;-55
2021/08/13 04:47:29;;;;;;;10.40;7.87;;;;;;;;;;5052669;28;20454;-52
2021/08/13 04:49:58;;;;;;;15.30;7.93;;;;;;;;;;5071150;27;20478;-58
2021/08/13 04:52:26;;;;;;;13.10;9.53;;;;;;;;;;5052336;28;20468;-57
2021/08/13 04:57:57;;;;;;;14.20;9.37;;;;;;;;;;5157228;27;20488;-56
2021/08/13 05:00:25;;;;;;;14.37;8.20;;;;;;;;;;5087489;28;20446;-53
2021/08/13 05:03:16;;;;;;;9.73;7.70;;;;;;;;;;5052320;28;20490;-59
2021/08/13 05:05:46;;;;;;;11.30;8.40;;;;;;;;;;5053486;28;20470;-56
2021/08/13 05:08:16;;;;;;;13.00;9.20;;;;;;;;;;5052832;28;20446;-58
2021/08/13 05:10:44;;;;;;;11.40;8.63;;;;;;;;;;5052905;28;20474;-54
2021/08/13 05:13:13;;;;;;;13.03;9.13;;;;;;;;;;5051478;28;20465;-58
2021/08/13 05:15:48;;;;;;;15.17;9.73;;;;;;;;;;5073215;27;20446;-59
2021/08/13 05:18:16;;;;;;;9.10;7.87;;;;;;;;;;5143762;28;20460;-61
2021/08/13 05:20:43;;;;;;;10.70;8.27;;;;;;;;;;5122503;27;20460;-60
2021/08/13 05:23:12;;;;;;;11.87;8.97;;;;;;;;;;5051831;28;20461;-58
2021/08/13 05:26:06;;;;;;;12.53;10.00;;;;;;;;;;5052728;28;20454;-53
2021/08/13 05:28:53;;;;;;;9.80;7.93;;;;;;;;;;5052863;27;20457;-54
2021/08/13 05:31:20;;;;;;;10.47;7.73;;;;;;;;;;5052585;28;20446;-56
2021/08/13 05:33:47;;;;;;;10.27;7.97;;;;;;;;;;5052413;28;20517;-58
2021/08/13 05:36:16;;;;;;;11.73;8.90;;;;;;;;;;5052218;27;20462;-58
2021/08/13 05:38:48;;;;;;;11.97;8.30;;;;;;;;;;5051936;28;20457;-58
2021/08/13 05:41:15;;;;;;;13.07;9.00;;;;;;;;;;5073304;28;20434;-54
2021/08/13 05:43:48;;;;;;;11.17;7.57;;;;;;;;;;5052600;28;20537;-57
2021/08/13 05:46:15;;;;;;;11.10;8.03;;;;;;;;;;5051811;28;20454;-57
2021/08/13 05:48:43;;;;;;;11.10;9.43;;;;;;;;;;5052332;28;20434;-60
2021/08/13 05:51:12;;;;;;;15.60;10.43;;;;;;;;;;5052947;28;20446;-51
2021/08/13 05:53:39;;;;;;;9.70;8.50;;;;;;;;;;5037155;28;20487;-55
2021/08/13 05:56:08;;;;;;;12.40;9.63;;;;;;;;;;5032293;28;20470;-50
2021/08/13 05:59:02;;;;;;;12.10;9.03;;;;;;;;;;5032706;28;20455;-56
2021/08/13 06:01:29;;;;;;;12.93;9.30;;;;;;;;;;5032355;28;20861;-51
2021/08/13 06:03:56;;;;;;;13.00;8.27;;;;;;;;;;5023219;28;20525;-60
2021/08/13 06:06:59;;;;;;;12.97;10.63;;;;;;;;;;5028727;28;20477;-53
2021/08/13 06:09:26;;;;;;;11.43;9.10;;;;;;;;;;5036012;28;20488;-61
2021/08/13 06:11:58;;;;;;;11.60;8.53;;;;;;;;;;5035336;28;20479;-56
2021/08/13 06:14:41;;;;;;;12.57;9.73;;;;;;;;;;5035667;28;20458;-54
2021/08/13 06:17:09;;;;;;;12.13;9.07;;;;;;;;;;5033655;28;20491;-59
2021/08/13 06:19:37;;;;;;;10.40;8.70;;;;;;;;;;5035877;28;20458;-58
2021/08/13 06:22:28;;;;;;;13.00;9.77;;;;;;;;;;5114597;28;20491;-58
2021/08/13 06:24:55;;;;;;;12.40;9.50;;;;;;;;;;5137781;28;20470;-57
2021/08/13 06:27:24;;;;;;;14.20;9.20;;;;;;;;;;5139532;28;20442;-55
2021/08/13 06:29:53;;;;;;;11.67;9.83;;;;;;;;;;5139293;28;20459;-59
2021/08/13 06:32:22;;;;;;;10.17;7.90;;;;;;;;;;5139869;28;20490;-60
2021/08/13 06:34:58;;;;;;;10.70;8.70;;;;;;;;;;5140405;27;20442;-57
2021/08/13 06:37:29;;;;;;;17.20;11.33;;;;;;;;;;5118804;28;20450;-50
2021/08/13 06:39:56;;;;;;;12.87;10.17;;;;;;;;;;5139012;28;20430;-55
2021/08/13 06:42:26;;;;;;;13.63;9.10;;;;;;;;;;5157835;27;20437;-56
2021/08/13 06:45:16;;;;;;;15.20;11.00;;;;;;;;;;5160337;27;20437;-57
2021/08/13 06:47:50;;;;;;;16.33;10.53;;;;;;;;;;5072754;27;20491;-59
2021/08/13 06:50:17;;;;;;;14.27;10.10;;;;;;;;;;5035166;28;20488;-60
2021/08/13 06:52:54;;;;;;;15.23;11.23;;;;;;;;;;5035168;28;20471;-57
2021/08/13 06:55:23;;;;;;;16.03;10.40;;;;;;;;;;5034966;28;20454;-52
2021/08/13 06:57:52;;;;;;;13.20;10.20;;;;;;;;;;5053360;28;20434;-55
2021/08/13 07:00:42;;;;;;;15.57;9.60;;;;;;;;;;5054180;28;20464;-56
2021/08/13 07:03:12;;;;;;;24.97;10.60;;;;;;;;;;5053879;28;20542;-59
2021/08/13 07:05:39;;;;;;;17.13;9.50;;;;;;;;;;5054914;28;20845;-60
2021/08/13 07:08:14;;;;;;;14.87;9.63;;;;;;;;;;5054388;28;20461;-57
2021/08/13 07:10:41;;;;;;;15.13;9.93;;;;;;;;;;5039672;28;20490;-61
2021/08/13 07:13:12;;;;;;;14.87;10.10;;;;;;;;;;5034733;28;20496;-57
2021/08/13 07:16:06;;;;;;;19.73;10.57;;;;;;;;;;5034576;28;20451;-58
2021/08/13 07:18:37;;;;;;;17.40;10.60;;;;;;;;;;5045626;28;20482;-56
2021/08/13 07:21:06;;;;;;;15.87;11.33;;;;;;;;;;5054562;28;20480;-54
2021/08/13 07:23:40;;;;;;;19.20;10.57;;;;;;;;;;5054256;28;20533;-54
2021/08/13 07:26:07;;;;;;;12.73;10.20;;;;;;;;;;5053872;28;20503;-56
2021/08/13 07:28:36;;;;;;;16.70;11.00;;;;;;;;;;5054662;28;20427;-61
2021/08/13 07:31:16;;;;;;;13.33;9.70;;;;;;;;;;5053620;28;20473;-61
2021/08/13 07:33:43;;;;;;;15.40;11.27;;;;;;;;;;5053524;28;20521;-58
2021/08/13 07:36:10;;;;;;;19.87;12.57;;;;;;;;;;5054482;28;20438;-53
2021/08/13 07:38:41;;;;;;;17.27;13.10;;;;;;;;;;5053723;28;20907;-60
2021/08/13 07:41:09;;;;;;;15.13;11.37;;;;;;;;;;5054263;28;20446;-61
2021/08/13 07:43:39;;;;;;;18.80;12.00;;;;;;;;;;5054326;28;20515;-57
2021/08/13 07:46:24;;;;;;;21.47;11.80;;;;;;;;;;5053948;28;20476;-58
2021/08/13 07:48:51;;;;;;;18.17;13.53;;;;;;;;;;5054377;28;20617;-57
2021/08/13 07:51:20;;;;;;;19.63;14.03;;;;;;;;;;5053643;28;20483;-54
2021/08/13 07:53:55;;;;;;;19.63;15.27;;;;;;;;;;5053664;28;20466;-60
2021/08/13 07:56:22;;;;;;;25.93;19.30;;;;;;;;;;5053626;27;20454;-56
2021/08/13 07:58:51;;;;;;;22.90;17.20;;;;;;;;;;5053354;28;20456;-57
2021/08/13 08:01:28;;;;;;;27.93;19.57;;;;;;;;;;5053611;28;20482;-53
2021/08/13 08:04:02;;;;;;;21.10;17.83;;;;;;;;;;5053235;28;20509;-58
2021/08/13 08:06:31;;;;;;;28.17;19.70;;;;;;;;;;5053475;28;20446;-60
2021/08/13 08:09:11;;;;;;;24.03;20.20;;;;;;;;;;5053085;28;20472;-56
2021/08/13 08:11:38;;;;;;;30.10;20.50;;;;;;;;;;5038722;28;20475;-59
2021/08/13 08:14:08;;;;;;;24.60;19.37;;;;;;;;;;5033464;28;20443;-59
2021/08/13 08:16:57;;;;;;;22.53;20.13;;;;;;;;;;5033388;28;20443;-56
2021/08/13 08:19:25;;;;;;;25.73;21.07;;;;;;;;;;5033599;28;20474;-55
2021/08/13 08:21:52;;;;;;;25.43;21.50;;;;;;;;;;5033181;28;20462;-55
2021/08/13 08:24:30;;;;;;;24.80;20.77;;;;;;;;;;5033522;28;20487;-54
2021/08/13 08:26:58;;;;;;;27.00;23.77;;;;;;;;;;5033059;28;20658;-54
2021/08/13 08:29:28;;;;;;;30.70;24.97;;;;;;;;;;5033525;28;20467;-53
2021/08/13 08:35:12;;;;;;;26.70;22.87;;;;;;;;;;5031548;28;20551;-54
2021/08/13 08:37:51;;;;;;;29.77;26.57;;;;;;;;;;5033412;28;20526;-51
2021/08/13 08:40:54;;;;;;;30.90;25.60;;;;;;;;;;5033420;28;20478;-54
2021/08/13 08:43:22;;;;;;;31.23;24.93;;;;;;;;;;5030981;28;20482;-53
2021/08/13 08:46:04;;;;;;;29.20;25.90;;;;;;;;;;5030993;28;20447;-57
2021/08/13 08:48:44;;;;;;;64.33;25.20;;;;;;;;;;5012861;28;20448;-58
2021/08/13 08:51:12;;;;;;;28.67;25.17;;;;;;;;;;5022102;28;20435;-55
2021/08/13 08:53:40;;;;;;;35.20;25.43;;;;;;;;;;5032536;28;20494;-54
2021/08/13 08:56:32;;;;;;;32.00;27.03;;;;;;;;;;5033074;28;20447;-58
2021/08/13 08:58:59;;;;;;;43.40;28.47;;;;;;;;;;5030664;28;20479;-53
2021/08/13 09:01:29;;;;;;;35.67;27.67;;;;;;;;;;5032916;28;20453;-56
2021/08/13 09:04:05;;;;;;;34.80;29.03;;;;;;;;;;5034028;28;20482;-58
2021/08/13 09:06:33;;;;;;;35.00;27.97;;;;;;;;;;5032230;28;20447;-55
2021/08/13 09:09:03;;;;;;;33.03;25.80;;;;;;;;;;5032684;28;20500;-57
2021/08/13 09:11:55;;;;;;;31.70;25.57;;;;;;;;;;5032770;28;20470;-56
2021/08/13 09:14:38;;;;;;;33.57;28.40;;;;;;;;;;5032781;28;20454;-55
2021/08/13 09:17:08;;;;;;;39.03;28.90;;;;;;;;;;5032852;28;20470;-57
2021/08/13 09:19:44;;;;;;;44.50;29.87;;;;;;;;;;5033160;28;20486;-56
2021/08/13 09:22:13;;;;;;;34.97;30.00;;;;;;;;;;5031786;28;20450;-56
2021/08/13 09:24:44;;;;;;;36.40;29.03;;;;;;;;;;5031895;28;20525;-58
2021/08/13 09:27:24;;;;;;;34.30;25.50;;;;;;;;;;5047057;28;20454;-60
2021/08/13 09:30:17;;;;;;;30.97;23.90;;;;;;;;;;5110540;28;20443;-62
2021/08/13 09:32:56;;;;;;;31.90;23.53;;;;;;;;;;5015360;28;20786;-58
2021/08/13 09:35:40;;;;;;;31.30;27.17;;;;;;;;;;5031010;28;20458;-53
2021/08/13 09:38:14;;;;;;;31.93;22.90;;;;;;;;;;5010581;28;20473;-59
2021/08/13 09:40:42;;;;;;;35.10;28.27;;;;;;;;;;5012753;28;20436;-60
2021/08/13 09:43:09;;;;;;;30.83;25.37;;;;;;;;;;5014962;28;20463;-59
2021/08/13 09:45:45;;;;;;;37.80;26.83;;;;;;;;;;5035420;28;20438;-57
2021/08/13 09:48:24;;;;;;;33.60;25.90;;;;;;;;;;5035635;28;20538;-56
2021/08/13 09:50:52;;;;;;;31.80;24.83;;;;;;;;;;5035418;28;20604;-55
2021/08/13 09:53:21;;;;;;;24.83;20.87;;;;;;;;;;5034957;28;20439;-56
2021/08/13 09:55:49;;;;;;;25.43;21.93;;;;;;;;;;5034690;28;20506;-56
2021/08/13 09:58:29;;;;;;;32.43;23.70;;;;;;;;;;5035364;28;20415;-57
2021/08/13 10:01:00;;;;;;;25.07;18.93;;;;;;;;;;5035271;28;20426;-57
2021/08/13 10:03:34;;;;;;;22.93;18.80;;;;;;;;;;5035942;28;20463;-55
2021/08/13 10:06:03;;;;;;;23.20;18.40;;;;;;;;;;5035095;28;20459;-55
2021/08/13 10:08:55;;;;;;;21.33;17.17;;;;;;;;;;5035084;28;20462;-54
2021/08/13 10:11:58;;;;;;;23.33;16.30;;;;;;;;;;5035703;28;20478;-58
2021/08/13 10:15:00;;;;;;;19.03;15.70;;;;;;;;;;5035375;28;20482;-58
2021/08/13 10:17:46;;;;;;;22.20;15.73;;;;;;;;;;5035408;28;20435;-57
2021/08/13 10:20:14;;;;;;;22.20;15.63;;;;;;;;;;5035205;28;20447;-59
2021/08/13 10:22:41;;;;;;;24.13;15.67;;;;;;;;;;5029395;28;20503;-55
2021/08/13 10:25:29;;;;;;;19.67;15.40;;;;;;;;;;5035321;28;20458;-58
2021/08/13 10:27:58;;;;;;;16.77;14.90;;;;;;;;;;5033081;28;20475;-57
2021/08/13 10:30:26;;;;;;;17.80;14.40;;;;;;;;;;5035100;28;20443;-56
2021/08/13 10:33:18;;;;;;;13.10;11.53;;;;;;;;;;5034997;28;20431;-58
2021/08/13 10:35:49;;;;;;;13.40;11.23;;;;;;;;;;5040203;28;20434;-57
2021/08/13 10:38:18;;;;;;;17.63;13.63;;;;;;;;;;5054222;28;20453;-56
2021/08/13 10:40:53;;;;;;;19.20;16.33;;;;;;;;;;5054996;28;20446;-55
2021/08/13 10:43:22;;;;;;;16.57;14.20;;;;;;;;;;5063919;28;20450;-55
2021/08/13 10:46:01;;;;;;;15.03;11.10;;;;;;;;;;5041405;28;20458;-57
2021/08/13 10:48:54;;;;;;;13.33;11.47;;;;;;;;;;5054763;28;20446;-53
2021/08/13 10:51:34;;;;;;;15.87;13.00;;;;;;;;;;5054708;28;20514;-60
2021/08/13 10:54:15;;;;;;;17.93;14.27;;;;;;;;;;5054779;28;20478;-56
2021/08/13 10:56:44;;;;;;;16.37;12.97;;;;;;;;;;5054970;28;20437;-55
2021/08/13 10:59:13;;;;;;;19.80;13.83;;;;;;;;;;5054210;28;20481;-60
2021/08/13 11:02:13;;;;;;;18.30;13.13;;;;;;;;;;5054595;28;20502;-58
2021/08/13 11:04:56;;;;;;;16.90;13.50;;;;;;;;;;5036726;28;20478;-54
2021/08/13 11:07:49;;;;;;;14.47;11.80;;;;;;;;;;5034245;28;20466;-54
2021/08/13 11:10:31;;;;;;;11.33;9.07;;;;;;;;;;5037233;28;20435;-56
2021/08/13 11:13:35;;;;;;;10.70;8.53;;;;;;;;;;5034518;28;20435;-56
2021/08/13 11:16:26;;;;;;;11.60;9.30;;;;;;;;;;5045788;28;20523;-59
2021/08/13 11:18:56;;;;;;;9.43;7.57;;;;;;;;;;5048095;28;20500;-58
2021/08/13 11:21:38;;;;;;;11.67;8.67;;;;;;;;;;5034459;28;20459;-53
2021/08/13 11:24:07;;;;;;;11.30;8.27;;;;;;;;;;5032370;28;20483;-59
2021/08/13 11:32:47;;;;;;;10.20;6.80;;;;;;;;;;5041114;28;20471;-57
2021/08/13 11:35:36;;;;;;;10.60;7.47;;;;;;;;;;5077297;27;20463;-60
2021/08/13 11:38:09;;;;;;;11.27;7.20;;;;;;;;;;5039487;28;20443;-59
2021/08/13 11:40:56;;;;;;;9.83;6.83;;;;;;;;;;5054883;28;20464;-57
2021/08/13 11:43:49;;;;;;;8.83;5.23;;;;;;;;;;5054733;28;20455;-56
2021/08/13 11:47:11;;;;;;;13.87;5.50;;;;;;;;;;5057699;28;20438;-58
2021/08/13 11:49:46;;;;;;;11.53;5.63;;;;;;;;;;5054139;27;20505;-53
2021/08/13 11:52:22;;;;;;;8.77;4.67;;;;;;;;;;5066451;27;20457;-55
2021/08/13 11:54:57;;;;;;;10.93;5.10;;;;;;;;;;5074799;27;20521;-55
2021/08/13 11:57:30;;;;;;;5.67;4.20;;;;;;;;;;5073819;28;20494;-54
2021/08/13 12:03:36;;;;;;;7.00;5.27;;;;;;;;;;5045104;28;20487;-51
2021/08/13 12:06:22;;;;;;;8.90;4.80;;;;;;;;;;5033862;28;20501;-55
2021/08/13 12:09:12;;;;;;;7.27;4.07;;;;;;;;;;5010984;28;20448;-59
2021/08/13 12:11:54;;;;;;;8.83;4.50;;;;;;;;;;5030676;28;20455;-57
2021/08/13 12:14:28;;;;;;;7.60;4.60;;;;;;;;;;5045948;28;20462;-61
2021/08/13 12:16:58;;;;;;;9.50;4.83;;;;;;;;;;5037611;28;20447;-58
2021/08/13 12:19:33;;;;;;;11.57;4.23;;;;;;;;;;5034781;28;20470;-56
2021/08/13 12:22:03;;;;;;;6.57;4.33;;;;;;;;;;5034607;28;20498;-53
2021/08/13 12:24:39;;;;;;;5.90;3.60;;;;;;;;;;5034362;28;20487;-55
2021/08/13 12:27:33;;;;;;;7.73;5.23;;;;;;;;;;5033736;28;20534;-55
2021/08/13 12:30:01;;;;;;;6.20;3.70;;;;;;;;;;5037344;28;20482;-56
2021/08/13 12:32:40;;;;;;;6.33;3.53;;;;;;;;;;5053821;28;20458;-57
2021/08/13 12:35:09;;;;;;;6.10;3.80;;;;;;;;;;5040111;28;20439;-51
2021/08/13 12:37:40;;;;;;;7.23;3.57;;;;;;;;;;5042948;28;20514;-55
2021/08/13 12:40:08;;;;;;;10.30;4.47;;;;;;;;;;5033955;28;20502;-57
2021/08/13 12:42:40;;;;;;;6.90;4.27;;;;;;;;;;5033771;28;20435;-60
2021/08/13 12:45:09;;;;;;;6.03;4.17;;;;;;;;;;5033673;28;20499;-58
2021/08/13 12:48:12;;;;;;;7.47;4.20;;;;;;;;;;5031119;28;20451;-57
2021/08/13 12:50:45;;;;;;;6.73;4.27;;;;;;;;;;5033619;28;20462;-57
2021/08/13 12:53:17;;;;;;;6.87;3.60;;;;;;;;;;5031653;28;20431;-60
2021/08/13 12:56:15;;;;;;;7.57;3.40;;;;;;;;;;5033378;28;20460;-59
2021/08/13 12:59:32;;;;;;;5.60;3.57;;;;;;;;;;5031488;28;20564;-58
2021/08/13 13:01:59;;;;;;;8.67;3.30;;;;;;;;;;5013644;28;20452;-55
2021/08/13 13:04:39;;;;;;;4.80;2.90;;;;;;;;;;5026706;28;20483;-55
2021/08/13 13:07:09;;;;;;;6.33;3.37;;;;;;;;;;5032980;28;20523;-54
2021/08/13 13:09:50;;;;;;;6.93;3.17;;;;;;;;;;5030302;28;20471;-59
2021/08/13 13:12:31;;;;;;;10.70;4.33;;;;;;;;;;5013796;28;20459;-56
2021/08/13 13:15:00;;;;;;;4.13;2.83;;;;;;;;;;5013970;28;20424;-60
2021/08/13 13:17:28;;;;;;;7.60;4.00;;;;;;;;;;5047177;28;20525;-58
2021/08/13 13:20:10;;;;;;;6.07;3.77;;;;;;;;;;5056287;28;20494;-55
2021/08/13 13:22:39;;;;;;;4.90;2.80;;;;;;;;;;5062430;28;20450;-58
2021/08/13 13:25:12;;;;;;;10.63;4.90;;;;;;;;;;5141004;28;20474;-57
2021/08/13 13:27:58;;;;;;;5.10;3.53;;;;;;;;;;5140555;28;20457;-57
2021/08/13 13:30:37;;;;;;;4.67;2.90;;;;;;;;;;5036687;28;20486;-57
2021/08/13 13:33:12;;;;;;;3.60;2.20;;;;;;;;;;5023137;28;20460;-58
2021/08/13 13:35:42;;;;;;;6.00;2.90;;;;;;;;;;5036713;28;20466;-54
2021/08/13 13:38:12;;;;;;;5.87;3.50;;;;;;;;;;5036528;28;20459;-56
2021/08/13 13:41:00;;;;;;;3.70;2.53;;;;;;;;;;5036509;28;20442;-61
2021/08/13 13:43:28;;;;;;;5.30;3.00;;;;;;;;;;5036827;28;20451;-59
2021/08/13 13:45:57;;;;;;;6.33;3.63;;;;;;;;;;5035654;28;20541;-48
2021/08/13 13:48:54;;;;;;;4.83;2.50;;;;;;;;;;5036337;28;20522;-58
2021/08/13 13:51:24;;;;;;;3.57;2.17;;;;;;;;;;5036152;28;20471;-61
2021/08/13 13:53:51;;;;;;;4.83;3.53;;;;;;;;;;5036347;28;20480;-58
2021/08/13 13:56:32;;;;;;;4.20;2.30;;;;;;;;;;5036038;28;20518;-58
2021/08/13 13:59:02;;;;;;;4.87;3.20;;;;;;;;;;5057629;28;20512;-57
2021/08/13 14:01:33;;;;;;;4.70;2.73;;;;;;;;;;5032807;28;20442;-60
2021/08/13 14:04:05;;;;;;;4.57;3.03;;;;;;;;;;5026588;28;20471;-53
2021/08/13 14:06:32;;;;;;;5.40;3.43;;;;;;;;;;5033891;28;20503;-53
2021/08/13 14:08:59;;;;;;;6.30;3.50;;;;;;;;;;5035738;28;20680;-58
2021/08/13 14:11:57;;;;;;;5.47;2.93;;;;;;;;;;5035386;28;20463;-57
2021/08/13 14:14:26;;;;;;;5.07;2.53;;;;;;;;;;5034922;28;20447;-60
2021/08/13 14:17:03;;;;;;;6.30;4.20;;;;;;;;;;5035447;28;20452;-58
2021/08/13 14:19:57;;;;;;;5.07;3.50;;;;;;;;;;5036054;28;20430;-60
2021/08/13 14:22:38;;;;;;;4.40;3.07;;;;;;;;;;5035583;28;20528;-52
2021/08/13 14:25:06;;;;;;;6.40;4.10;;;;;;;;;;5035206;28;20550;-55
2021/08/13 14:27:33;;;;;;;5.30;3.50;;;;;;;;;;5035003;28;20642;-57
2021/08/13 14:30:03;;;;;;;4.90;3.00;;;;;;;;;;5036092;28;20459;-56
2021/08/13 14:32:40;;;;;;;6.60;3.43;;;;;;;;;;5034899;28;20443;-54
2021/08/13 14:35:09;;;;;;;4.87;3.30;;;;;;;;;;5031531;28;20439;-58
2021/08/13 14:37:38;;;;;;;4.07;2.43;;;;;;;;;;5025098;28;20439;-61
2021/08/13 14:40:16;;;;;;;5.13;3.83;;;;;;;;;;5027837;28;20475;-54
2021/08/13 14:42:43;;;;;;;5.67;3.30;;;;;;;;;;5017683;28;20466;-59
2021/08/13 14:45:15;;;;;;;6.07;2.97;;;;;;;;;;5015582;28;20496;-59
2021/08/13 14:47:44;;;;;;;6.00;2.83;;;;;;;;;;5015845;28;20524;-61
2021/08/13 14:50:15;;;;;;;5.70;3.70;;;;;;;;;;5022667;28;20452;-54
2021/08/13 14:52:56;;;;;;;7.07;4.13;;;;;;;;;;5035513;28;20441;-53
2021/08/13 14:55:25;;;;;;;5.80;3.00;;;;;;;;;;5015402;28;20478;-54
2021/08/13 14:57:57;;;;;;;6.03;2.50;;;;;;;;;;5016838;28;20535;-61
2021/08/13 15:00:27;;;;;;;5.60;3.27;;;;;;;;;;5034344;28;20506;-54
2021/08/13 15:03:04;;;;;;;7.33;3.70;;;;;;;;;;5032548;28;20475;-58
2021/08/13 15:05:32;;;;;;;7.50;4.90;;;;;;;;;;5034237;28;20505;-57
2021/08/13 15:08:11;;;;;;;7.73;3.57;;;;;;;;;;5034907;28;20462;-61
2021/08/13 15:10:39;;;;;;;5.70;3.63;;;;;;;;;;5033129;28;20548;-56
2021/08/13 15:13:07;;;;;;;6.73;4.17;;;;;;;;;;5034826;28;20459;-57
2021/08/13 15:15:48;;;;;;;8.30;4.97;;;;;;;;;;5035235;28;20458;-56
2021/08/13 15:18:15;;;;;;;5.00;3.83;;;;;;;;;;5035150;28;20459;-58
2021/08/13 15:20:50;;;;;;;7.20;4.50;;;;;;;;;;5034464;28;20486;-57
2021/08/13 15:23:32;;;;;;;8.07;4.90;;;;;;;;;;5034763;28;20526;-61
2021/08/13 15:26:01;;;;;;;5.90;3.10;;;;;;;;;;5033770;28;20470;-52